Time;durP1;ratioP1;P1;durP2;ratioP2;P2;SDS_P1;SDS_P2;PMS_P1;PMS_P2;Temp;Humidity;BMP_temperature;BMP_pressure;BME280_temperature;BME280_humidity;BME280_pressure;Samples;Min_cycle;Max_cycle;Signal;HPM_P1;HPM_P2
2022/07/27 00:02:14;;;;;;;2.67;0.88;;;18.20;99.90;;;;;;5045834;28;20229;-79
2022/07/27 00:04:41;;;;;;;1.85;1.10;;;18.20;99.90;;;;;;5029650;28;20198;-79
2022/07/27 00:07:13;;;;;;;3.85;1.38;;;18.30;99.90;;;;;;5026583;28;20679;-79
2022/07/27 00:09:41;;;;;;;3.53;0.85;;;18.20;99.90;;;;;;5031923;28;20202;-80
2022/07/27 00:12:09;;;;;;;2.28;0.80;;;18.40;99.90;;;;;;5044526;28;20193;-79
2022/07/27 00:14:37;;;;;;;1.52;1.00;;;18.30;99.90;;;;;;5041577;28;20567;-80
2022/07/27 00:17:04;;;;;;;1.90;1.00;;;18.20;99.90;;;;;;5041701;28;20199;-79
2022/07/27 00:19:32;;;;;;;2.55;0.95;;;18.30;99.90;;;;;;5045263;28;20679;-79
2022/07/27 00:21:59;;;;;;;3.38;0.95;;;18.30;99.90;;;;;;5025861;28;20199;-80
2022/07/27 00:24:28;;;;;;;3.05;0.93;;;18.40;99.90;;;;;;5028686;28;20205;-79
2022/07/27 00:27:06;;;;;;;3.53;1.13;;;18.30;99.90;;;;;;5040273;28;20195;-79
2022/07/27 00:29:34;;;;;;;3.95;0.70;;;18.30;99.90;;;;;;5024062;28;20194;-79
2022/07/27 00:32:05;;;;;;;4.55;1.38;;;18.30;99.90;;;;;;5030974;28;20203;-79
2022/07/27 00:34:35;;;;;;;2.05;1.10;;;18.20;99.90;;;;;;5022707;28;20652;-79
2022/07/27 00:37:05;;;;;;;2.22;1.08;;;18.30;99.90;;;;;;5027191;28;20566;-80
2022/07/27 00:39:34;;;;;;;1.38;0.73;;;18.30;99.90;;;;;;5020156;28;20207;-80
2022/07/27 00:42:05;;;;;;;1.27;0.90;;;18.20;99.90;;;;;;5027434;28;20673;-79
2022/07/27 00:44:33;;;;;;;2.40;0.95;;;18.20;99.90;;;;;;5026910;28;20226;-79
2022/07/27 00:47:01;;;;;;;2.25;1.25;;;18.10;99.90;;;;;;5037801;28;20206;-79
2022/07/27 00:49:29;;;;;;;3.15;0.93;;;18.20;99.90;;;;;;5044741;28;20190;-79
2022/07/27 00:51:56;;;;;;;3.50;1.10;;;18.10;99.90;;;;;;5045679;28;20198;-79
2022/07/27 00:54:25;;;;;;;2.95;1.00;;;17.90;99.90;;;;;;5045874;28;20199;-79
2022/07/27 00:56:54;;;;;;;3.33;1.33;;;18.00;99.90;;;;;;5043323;28;20217;-79
2022/07/27 00:59:22;;;;;;;3.25;1.00;;;17.90;99.90;;;;;;5024027;28;20210;-79
2022/07/27 01:01:50;;;;;;;3.40;0.80;;;18.00;99.90;;;;;;5028022;28;20198;-79
2022/07/27 01:04:17;;;;;;;1.85;0.90;;;18.20;99.90;;;;;;5040492;28;20214;-79
2022/07/27 01:06:45;;;;;;;4.35;1.20;;;18.20;99.90;;;;;;5042286;28;20227;-79
2022/07/27 01:11:59;;;;;;;3.22;1.45;;;18.20;99.90;;;;;;5026774;28;20201;-79
2022/07/27 01:14:26;;;;;;;2.63;1.02;;;18.10;99.90;;;;;;5046060;28;21323;-79
2022/07/27 01:16:54;;;;;;;2.15;0.95;;;18.00;99.90;;;;;;5043740;28;20229;-79
2022/07/27 01:19:21;;;;;;;4.30;1.33;;;18.00;99.90;;;;;;5052498;28;20203;-79
2022/07/27 01:21:53;;;;;;;3.65;1.20;;;17.80;99.90;;;;;;5026228;28;20209;-79
2022/07/27 01:24:21;;;;;;;2.22;1.45;;;18.00;99.90;;;;;;5033490;28;20221;-80
2022/07/27 01:26:48;;;;;;;2.53;1.00;;;18.10;99.90;;;;;;5020794;28;20712;-79
2022/07/27 01:29:15;;;;;;;2.60;0.95;;;18.10;99.90;;;;;;5042169;28;20265;-79
2022/07/27 01:31:43;;;;;;;2.38;1.30;;;18.00;99.90;;;;;;5029118;28;20667;-79
2022/07/27 01:34:10;;;;;;;4.90;1.30;;;18.00;99.90;;;;;;5046009;28;20656;-79
2022/07/27 01:36:38;;;;;;;1.60;1.20;;;18.00;99.90;;;;;;5020288;28;20751;-79
2022/07/27 01:39:07;;;;;;;1.13;0.90;;;17.90;99.90;;;;;;5041752;28;20633;-80
2022/07/27 01:41:34;;;;;;;3.78;1.10;;;17.80;99.90;;;;;;5047946;28;20191;-79
2022/07/27 01:44:02;;;;;;;3.05;1.13;;;17.80;99.90;;;;;;5047103;28;20221;-80
2022/07/27 01:46:29;;;;;;;4.38;1.50;;;17.80;99.90;;;;;;5028275;28;20250;-80
2022/07/27 01:48:59;;;;;;;5.80;1.20;;;17.70;99.90;;;;;;5041797;28;20708;-79
2022/07/27 01:51:26;;;;;;;3.63;1.13;;;17.50;99.90;;;;;;5043590;28;20202;-79
2022/07/27 01:53:54;;;;;;;3.70;1.17;;;17.40;99.90;;;;;;5028583;28;20205;-79
2022/07/27 01:56:26;;;;;;;3.42;1.30;;;17.40;99.90;;;;;;5030999;28;20218;-79
2022/07/27 01:58:54;;;;;;;2.45;1.10;;;17.50;99.90;;;;;;5023529;28;20217;-79
2022/07/27 02:01:21;;;;;;;3.15;1.17;;;17.40;99.90;;;;;;5039591;28;20210;-81
2022/07/27 02:03:49;;;;;;;2.78;1.02;;;17.40;99.90;;;;;;5022710;28;20222;-79
2022/07/27 02:06:16;;;;;;;3.47;1.27;;;17.50;99.90;;;;;;5025939;28;20221;-79
2022/07/27 02:08:47;;;;;;;2.47;0.90;;;17.50;99.90;;;;;;5032013;28;20209;-79
2022/07/27 02:14:01;;;;;;;2.20;1.20;;;17.10;99.90;;;;;;5040979;28;20193;-79
2022/07/27 02:16:28;;;;;;;2.25;0.90;;;17.00;99.90;;;;;;5061905;28;20218;-80
2022/07/27 02:18:55;;;;;;;2.58;1.42;;;17.10;99.90;;;;;;5050970;28;20202;-79
2022/07/27 02:21:23;;;;;;;2.95;1.67;;;17.10;99.90;;;;;;5034450;28;20206;-79
2022/07/27 02:23:50;;;;;;;2.55;1.40;;;17.10;99.90;;;;;;5032569;28;20214;-79
2022/07/27 02:26:18;;;;;;;4.28;1.52;;;17.00;99.90;;;;;;5033985;28;20241;-79
2022/07/27 02:28:46;;;;;;;2.55;1.25;;;16.90;99.90;;;;;;5050600;28;20195;-79
2022/07/27 02:31:14;;;;;;;2.15;1.23;;;16.80;99.90;;;;;;5030320;28;20224;-79
2022/07/27 02:33:42;;;;;;;2.45;1.40;;;16.70;99.90;;;;;;5047872;28;20202;-79
2022/07/27 02:36:09;;;;;;;3.88;1.10;;;16.40;99.90;;;;;;5048080;28;20225;-79
2022/07/27 02:38:40;;;;;;;4.13;1.63;;;16.50;99.90;;;;;;5048657;28;20206;-79
2022/07/27 02:41:07;;;;;;;3.10;1.30;;;16.40;99.90;;;;;;5043333;28;20202;-81
2022/07/27 02:43:34;;;;;;;4.47;1.50;;;15.90;99.90;;;;;;5043028;28;20219;-79
2022/07/27 02:46:04;;;;;;;3.17;1.60;;;15.70;99.90;;;;;;5057187;28;20306;-79
2022/07/27 02:48:45;;;;;;;4.35;1.73;;;15.70;99.90;;;;;;5031389;28;20203;-79
2022/07/27 02:51:13;;;;;;;2.30;1.45;;;15.80;99.90;;;;;;5026741;28;20201;-79
2022/07/27 02:53:41;;;;;;;6.45;1.50;;;15.50;99.90;;;;;;5046081;28;20182;-79
2022/07/27 02:56:09;;;;;;;1.40;1.00;;;15.60;99.90;;;;;;5039862;28;20214;-79
2022/07/27 02:58:37;;;;;;;3.70;1.27;;;15.70;99.90;;;;;;5041110;28;20194;-79
2022/07/27 03:01:04;;;;;;;1.85;1.40;;;15.80;99.90;;;;;;5029879;28;20210;-79
2022/07/27 03:03:32;;;;;;;2.15;1.20;;;15.90;99.90;;;;;;5048598;28;20217;-79
2022/07/27 03:06:01;;;;;;;2.75;1.27;;;15.90;99.90;;;;;;5028919;28;20221;-79
2022/07/27 03:08:28;;;;;;;3.08;1.38;;;15.70;99.90;;;;;;5041719;28;20194;-79
2022/07/27 03:10:56;;;;;;;6.13;1.42;;;15.60;99.90;;;;;;5024084;28;20198;-79
2022/07/27 03:13:23;;;;;;;1.85;1.17;;;15.60;99.90;;;;;;5030877;28;20202;-81
2022/07/27 03:15:51;;;;;;;1.90;1.10;;;16.00;99.90;;;;;;5025231;28;20227;-79
2022/07/27 03:18:18;;;;;;;2.17;1.10;;;16.40;99.90;;;;;;5046209;28;20209;-79
2022/07/27 03:20:46;;;;;;;2.80;1.30;;;16.10;99.90;;;;;;5046398;28;20199;-80
2022/07/27 03:23:14;;;;;;;3.97;1.10;;;15.90;99.90;;;;;;5027056;28;20678;-79
2022/07/27 03:25:42;;;;;;;2.45;1.23;;;15.50;99.90;;;;;;5024276;28;20233;-80
2022/07/27 03:28:10;;;;;;;3.92;1.60;;;15.90;99.90;;;;;;5028717;28;20698;-80
2022/07/27 03:30:37;;;;;;;2.03;1.27;;;15.90;99.90;;;;;;5022745;28;20912;-79
2022/07/27 03:33:05;;;;;;;4.53;1.40;;;15.70;99.90;;;;;;5049133;28;20197;-79
2022/07/27 03:35:32;;;;;;;3.70;1.02;;;15.50;99.90;;;;;;5030374;28;20210;-79
2022/07/27 03:38:00;;;;;;;1.83;1.15;;;15.70;99.90;;;;;;5025640;28;20191;-79
2022/07/27 03:40:31;;;;;;;1.45;1.25;;;15.40;99.90;;;;;;5029101;28;20198;-79
2022/07/27 03:42:59;;;;;;;1.45;1.30;;;15.80;99.90;;;;;;5028170;28;20198;-79
2022/07/27 03:45:27;;;;;;;2.90;1.23;;;16.30;99.90;;;;;;5026576;28;20223;-79
2022/07/27 03:47:54;;;;;;;2.55;1.25;;;16.40;99.90;;;;;;5022062;28;20577;-79
2022/07/27 03:50:22;;;;;;;3.25;1.40;;;16.30;99.90;;;;;;5023099;28;20565;-79
2022/07/27 03:52:53;;;;;;;2.08;1.20;;;16.20;99.90;;;;;;5055928;28;20202;-79
2022/07/27 03:55:20;;;;;;;2.22;1.10;;;16.30;99.90;;;;;;5032943;28;20684;-79
2022/07/27 03:57:51;;;;;;;4.60;1.50;;;16.40;99.90;;;;;;5027008;28;20228;-79
2022/07/27 04:00:19;;;;;;;4.25;1.45;;;16.50;99.90;;;;;;5039057;28;20202;-79
2022/07/27 04:02:46;;;;;;;4.10;1.52;;;16.00;99.90;;;;;;5031789;28;20198;-79
2022/07/27 04:05:14;;;;;;;3.75;1.48;;;15.70;99.90;;;;;;5044305;28;20219;-79
2022/07/27 04:07:42;;;;;;;2.20;1.40;;;15.40;99.90;;;;;;5025809;28;20706;-79
2022/07/27 04:10:11;;;;;;;3.20;1.17;;;15.40;99.90;;;;;;5040325;28;20203;-79
2022/07/27 04:12:39;;;;;;;4.22;1.65;;;15.90;99.90;;;;;;5042718;28;20191;-79
2022/07/27 04:15:10;;;;;;;4.07;1.48;;;16.00;99.90;;;;;;5025218;28;20229;-79
2022/07/27 04:17:37;;;;;;;2.70;1.27;;;16.10;99.90;;;;;;5025177;28;20202;-79
2022/07/27 04:20:06;;;;;;;3.17;1.40;;;16.20;99.90;;;;;;5044171;28;20194;-79
2022/07/27 04:22:33;;;;;;;2.50;1.50;;;15.70;99.90;;;;;;5024355;28;20202;-78
2022/07/27 04:25:01;;;;;;;3.08;1.50;;;15.40;99.90;;;;;;5046269;28;20217;-78
2022/07/27 04:27:28;;;;;;;4.28;1.63;;;15.50;99.90;;;;;;5043816;28;20215;-79
2022/07/27 04:29:56;;;;;;;3.83;1.75;;;15.60;99.90;;;;;;5025205;28;20198;-79
2022/07/27 04:32:24;;;;;;;1.67;1.35;;;15.50;99.90;;;;;;5045926;28;20206;-78
2022/07/27 04:34:52;;;;;;;2.58;1.45;;;15.50;99.90;;;;;;5024645;28;20199;-79
2022/07/27 04:37:19;;;;;;;3.20;1.45;;;15.70;99.90;;;;;;5040827;28;20703;-78
2022/07/27 04:39:47;;;;;;;2.53;1.50;;;15.70;99.90;;;;;;5045283;28;20195;-78
2022/07/27 04:42:14;;;;;;;2.33;1.90;;;15.90;99.90;;;;;;5019164;28;20210;-78
2022/07/27 04:44:42;;;;;;;3.90;1.73;;;15.50;99.90;;;;;;5019178;28;20226;-78
2022/07/27 04:47:09;;;;;;;5.97;2.58;;;15.70;99.90;;;;;;5042028;28;20214;-78
2022/07/27 04:49:38;;;;;;;4.00;1.77;;;15.40;99.90;;;;;;5024615;28;20198;-78
2022/07/27 04:52:08;;;;;;;3.60;1.98;;;15.10;99.90;;;;;;5057680;28;20203;-79
2022/07/27 04:54:36;;;;;;;4.53;1.65;;;15.30;99.90;;;;;;5028749;28;20198;-79
2022/07/27 04:57:03;;;;;;;2.90;2.05;;;15.20;99.90;;;;;;5045015;28;20191;-78
2022/07/27 04:59:31;;;;;;;2.88;1.92;;;15.10;99.90;;;;;;5022670;28;20214;-79
2022/07/27 05:01:58;;;;;;;3.08;1.73;;;15.40;99.90;;;;;;5036203;28;20194;-79
2022/07/27 05:04:26;;;;;;;3.83;1.98;;;16.20;99.90;;;;;;5021535;28;20202;-79
2022/07/27 05:06:55;;;;;;;2.88;1.92;;;16.00;99.90;;;;;;5049416;28;20218;-79
2022/07/27 05:09:25;;;;;;;4.53;2.35;;;16.10;99.90;;;;;;5040328;28;20199;-79
2022/07/27 05:11:52;;;;;;;5.32;2.65;;;16.50;99.90;;;;;;5026946;28;20198;-78
2022/07/27 05:14:20;;;;;;;4.88;2.28;;;16.50;99.90;;;;;;5023769;28;20194;-79
2022/07/27 05:16:47;;;;;;;2.95;2.10;;;17.00;99.90;;;;;;5025921;28;20581;-78
2022/07/27 05:19:21;;;;;;;4.05;1.80;;;17.70;99.90;;;;;;5040270;28;20194;-79
2022/07/27 05:21:49;;;;;;;3.47;2.00;;;17.90;99.90;;;;;;5021474;28;20206;-78
2022/07/27 05:24:20;;;;;;;4.80;2.35;;;17.70;99.90;;;;;;5045649;28;20197;-79
2022/07/27 05:26:47;;;;;;;2.28;1.77;;;17.50;99.90;;;;;;5043427;28;20289;-78
2022/07/27 05:29:15;;;;;;;3.95;1.83;;;17.60;99.90;;;;;;5028530;28;20197;-78
2022/07/27 05:31:42;;;;;;;5.28;2.20;;;17.90;99.90;;;;;;5041958;28;20191;-78
2022/07/27 05:34:10;;;;;;;4.75;1.70;;;18.20;99.90;;;;;;5045037;28;20548;-78
2022/07/27 05:36:37;;;;;;;4.13;1.83;;;18.50;99.90;;;;;;5022773;28;20210;-78
2022/07/27 05:39:05;;;;;;;3.63;1.50;;;18.60;99.90;;;;;;5032291;28;20828;-78
2022/07/27 05:41:36;;;;;;;5.10;1.83;;;18.60;99.90;;;;;;5036778;28;20209;-79
2022/07/27 05:44:09;;;;;;;4.97;1.50;;;18.50;99.90;;;;;;5041161;28;20194;-79
2022/07/27 05:46:36;;;;;;;3.70;1.95;;;18.70;99.90;;;;;;5048904;28;20716;-79
2022/07/27 05:49:06;;;;;;;4.35;2.38;;;18.40;99.90;;;;;;5054354;28;20199;-78
2022/07/27 05:51:37;;;;;;;3.95;1.40;;;18.40;99.90;;;;;;5049009;28;20572;-79
2022/07/27 05:54:18;;;;;;;2.63;1.40;;;18.50;99.90;;;;;;5052825;28;20202;-78
2022/07/27 05:57:06;;;;;;;2.30;1.38;;;18.40;99.90;;;;;;5031012;28;20222;-78
2022/07/27 05:59:40;;;;;;;8.55;1.70;;;18.80;99.90;;;;;;5049872;28;20198;-78
2022/07/27 06:02:26;;;;;;;3.05;1.50;;;18.80;99.90;;;;;;5030308;28;20214;-79
2022/07/27 06:04:53;;;;;;;7.05;1.90;;;18.80;99.90;;;;;;5031060;28;20237;-79
2022/07/27 06:10:06;;;;;;;3.42;1.58;;;18.80;99.90;;;;;;5021385;28;20194;-79
2022/07/27 06:12:43;;;;;;;2.95;1.05;;;18.60;99.90;;;;;;5043442;28;20195;-79
2022/07/27 06:15:12;;;;;;;4.60;1.67;;;18.70;99.90;;;;;;5039362;28;20234;-79
2022/07/27 06:17:39;;;;;;;7.82;3.25;;;19.00;99.90;;;;;;5055973;28;20209;-80
2022/07/27 06:20:09;;;;;;;11.00;3.08;;;19.10;99.90;;;;;;5040721;28;20219;-79
2022/07/27 06:22:45;;;;;;;6.35;1.95;;;19.20;99.90;;;;;;5037198;28;20199;-80
2022/07/27 06:25:14;;;;;;;4.20;1.70;;;19.20;99.90;;;;;;5042266;28;20231;-80
2022/07/27 06:27:43;;;;;;;3.13;1.45;;;19.00;99.90;;;;;;5053864;28;20213;-80
2022/07/27 06:30:11;;;;;;;3.85;1.70;;;19.10;99.90;;;;;;5055283;28;20199;-80
2022/07/27 06:32:39;;;;;;;6.22;1.58;;;19.20;99.90;;;;;;5030649;28;20229;-79
2022/07/27 06:35:08;;;;;;;2.53;1.25;;;19.00;99.70;;;;;;5035420;28;20214;-79
2022/07/27 06:37:36;;;;;;;3.30;1.55;;;18.80;99.90;;;;;;5027349;28;20217;-79
2022/07/27 06:40:04;;;;;;;2.80;1.30;;;18.80;99.90;;;;;;5044725;28;20202;-78
2022/07/27 06:42:32;;;;;;;3.47;1.30;;;19.00;99.90;;;;;;5024299;28;20207;-78
2022/07/27 06:45:01;;;;;;;3.80;1.10;;;18.80;99.90;;;;;;5029073;28;20230;-78
2022/07/27 06:47:28;;;;;;;1.15;0.85;;;18.70;99.90;;;;;;5035026;28;20207;-77
2022/07/27 06:49:55;;;;;;;3.17;1.00;;;18.40;99.90;;;;;;5023317;28;20199;-79
2022/07/27 06:52:23;;;;;;;2.85;1.33;;;18.50;99.90;;;;;;5035803;28;20213;-78
2022/07/27 06:54:50;;;;;;;2.40;0.82;;;18.60;99.90;;;;;;5030161;28;20225;-78
2022/07/27 06:57:18;;;;;;;2.58;0.88;;;18.90;99.40;;;;;;5048722;28;20186;-79
2022/07/27 06:59:45;;;;;;;3.35;1.02;;;19.00;99.20;;;;;;5048704;28;20194;-78
2022/07/27 07:02:14;;;;;;;1.35;0.65;;;18.80;98.00;;;;;;5032901;28;20261;-78
2022/07/27 07:04:42;;;;;;;2.80;1.15;;;18.70;98.10;;;;;;5050406;28;20195;-78
2022/07/27 07:07:09;;;;;;;4.72;1.15;;;18.60;98.30;;;;;;5050365;28;20226;-78
2022/07/27 07:09:37;;;;;;;1.25;0.70;;;18.90;98.70;;;;;;5046170;28;20198;-78
2022/07/27 07:12:06;;;;;;;4.38;0.90;;;19.00;97.90;;;;;;5026096;28;20203;-77
2022/07/27 07:14:33;;;;;;;2.78;0.82;;;19.00;97.60;;;;;;5039940;28;20198;-78
2022/07/27 07:17:01;;;;;;;1.92;0.65;;;19.10;97.50;;;;;;5032407;28;20206;-78
2022/07/27 07:19:30;;;;;;;3.53;1.02;;;19.30;97.00;;;;;;5044734;28;20199;-79
2022/07/27 07:21:57;;;;;;;2.83;0.98;;;19.20;96.70;;;;;;5054039;28;20206;-78
2022/07/27 07:24:28;;;;;;;1.95;0.82;;;18.70;97.30;;;;;;5030145;28;20210;-77
2022/07/27 07:26:56;;;;;;;1.98;0.60;;;18.70;97.30;;;;;;5050467;28;20233;-78
2022/07/27 07:29:23;;;;;;;4.10;1.13;;;18.60;97.70;;;;;;5027448;28;20359;-78
2022/07/27 07:31:51;;;;;;;2.28;0.82;;;18.50;97.80;;;;;;5034200;28;20194;-78
2022/07/27 07:34:18;;;;;;;3.92;0.85;;;18.80;98.40;;;;;;5050103;28;20190;-78
2022/07/27 07:36:47;;;;;;;1.65;0.70;;;19.00;97.80;;;;;;5030976;28;20206;-78
2022/07/27 07:39:16;;;;;;;1.95;0.73;;;19.30;97.70;;;;;;5047357;28;20209;-77
2022/07/27 07:41:43;;;;;;;1.70;0.98;;;19.10;97.20;;;;;;5032656;28;20576;-79
2022/07/27 07:44:11;;;;;;;1.38;0.65;;;19.50;95.50;;;;;;5044479;28;20195;-77
2022/07/27 07:46:38;;;;;;;2.22;0.80;;;19.50;95.40;;;;;;5024277;28;20229;-77
2022/07/27 07:49:06;;;;;;;1.30;0.75;;;19.40;95.20;;;;;;5047846;28;20198;-78
2022/07/27 07:51:35;;;;;;;2.58;0.93;;;19.40;96.50;;;;;;5041761;28;20206;-80
2022/07/27 07:54:04;;;;;;;2.92;0.80;;;19.60;95.40;;;;;;5038837;28;20199;-77
2022/07/27 07:56:34;;;;;;;3.08;0.85;;;19.80;96.20;;;;;;5022822;28;20211;-81
2022/07/27 07:59:03;;;;;;;2.78;0.85;;;20.00;94.80;;;;;;5048946;28;20198;-77
2022/07/27 08:01:32;;;;;;;4.50;1.30;;;20.00;94.80;;;;;;5043481;28;20202;-79
2022/07/27 08:04:00;;;;;;;7.47;2.88;;;19.80;93.90;;;;;;5045446;28;20198;-78
2022/07/27 08:06:28;;;;;;;5.57;1.80;;;19.90;93.00;;;;;;5032508;28;20225;-78
2022/07/27 08:09:04;;;;;;;2.60;0.98;;;19.60;92.60;;;;;;5033746;28;20199;-78
2022/07/27 08:11:38;;;;;;;3.40;1.58;;;19.80;93.70;;;;;;5046527;28;20574;-77
2022/07/27 08:14:06;;;;;;;5.60;1.27;;;20.00;93.40;;;;;;5040375;28;20199;-78
2022/07/27 08:16:33;;;;;;;5.25;1.38;;;19.90;93.60;;;;;;5037268;28;20218;-78
2022/07/27 08:19:10;;;;;;;3.60;1.52;;;20.10;93.40;;;;;;5044025;28;20197;-79
2022/07/27 08:21:37;;;;;;;5.03;1.00;;;20.30;92.20;;;;;;5045393;28;20538;-79
2022/07/27 08:24:06;;;;;;;2.03;1.00;;;20.10;92.10;;;;;;5029467;28;20207;-81
2022/07/27 08:26:34;;;;;;;2.05;0.50;;;20.00;92.00;;;;;;5033902;28;20230;-79
2022/07/27 08:29:02;;;;;;;1.20;0.65;;;19.90;92.20;;;;;;5053427;28;20201;-79
2022/07/27 08:31:29;;;;;;;2.05;0.82;;;20.00;91.70;;;;;;5054496;28;20214;-82
2022/07/27 08:34:41;;;;;;;1.33;0.60;;;20.10;91.70;;;;;;5018556;28;20217;-79
2022/07/27 08:37:08;;;;;;;2.17;0.50;;;20.20;91.70;;;;;;5042649;28;20189;-79
2022/07/27 08:39:37;;;;;;;3.03;0.80;;;20.10;92.40;;;;;;5036869;28;20195;-79
2022/07/27 08:42:09;;;;;;;1.63;0.63;;;20.20;91.60;;;;;;5047115;28;20217;-78
2022/07/27 08:44:39;;;;;;;1.58;0.82;;;20.10;90.60;;;;;;5049345;28;20214;-79
2022/07/27 08:47:09;;;;;;;2.72;0.77;;;20.00;91.50;;;;;;5034900;28;20230;-79
2022/07/27 08:49:40;;;;;;;1.45;0.70;;;20.00;90.20;;;;;;5023259;28;20207;-79
2022/07/27 08:52:16;;;;;;;3.30;0.57;;;19.90;90.50;;;;;;5049292;28;20206;-79
2022/07/27 08:54:45;;;;;;;1.63;0.70;;;20.10;91.40;;;;;;5047697;28;20202;-79
2022/07/27 08:57:12;;;;;;;5.78;0.95;;;19.80;91.70;;;;;;5019917;28;20637;-79
2022/07/27 08:59:39;;;;;;;1.95;0.75;;;19.70;91.40;;;;;;5034775;28;20191;-79
2022/07/27 09:02:10;;;;;;;3.13;0.82;;;19.70;91.30;;;;;;5022817;28;20205;-79
2022/07/27 09:04:40;;;;;;;5.50;0.93;;;19.90;92.20;;;;;;5047313;28;20190;-79
2022/07/27 09:07:10;;;;;;;1.25;0.55;;;19.80;91.60;;;;;;5029377;28;20621;-79
2022/07/27 09:09:49;;;;;;;3.55;0.75;;;19.80;91.40;;;;;;5033203;28;20198;-79
2022/07/27 09:12:20;;;;;;;3.03;0.50;;;19.90;91.20;;;;;;5029467;28;20209;-79
2022/07/27 09:14:47;;;;;;;2.20;0.70;;;19.90;90.50;;;;;;5034867;28;20198;-79
2022/07/27 09:17:25;;;;;;;2.08;0.80;;;19.50;90.60;;;;;;5036685;28;20198;-79
2022/07/27 09:19:54;;;;;;;0.90;0.50;;;19.30;91.80;;;;;;5038404;28;20202;-79
2022/07/27 09:22:44;;;;;;;2.33;1.00;;;19.20;91.70;;;;;;5029432;28;20209;-79
2022/07/27 09:25:15;;;;;;;1.40;0.70;;;19.40;91.90;;;;;;5053653;28;20229;-79
2022/07/27 09:27:55;;;;;;;2.20;0.73;;;19.40;92.20;;;;;;5050651;28;20210;-79
2022/07/27 09:30:23;;;;;;;1.58;0.60;;;19.70;92.30;;;;;;5055241;28;20194;-79
2022/07/27 09:32:57;;;;;;;2.60;1.05;;;19.60;91.90;;;;;;5038297;28;20557;-79
2022/07/27 09:35:28;;;;;;;1.85;0.95;;;19.60;91.80;;;;;;5060436;28;20310;-79
2022/07/27 09:37:56;;;;;;;4.25;0.88;;;19.60;91.70;;;;;;5063096;28;20202;-79
2022/07/27 09:40:25;;;;;;;1.92;0.77;;;19.70;92.20;;;;;;5075688;23;20217;-79
2022/07/27 09:43:11;;;;;;;2.85;1.20;;;19.70;91.90;;;;;;5076115;28;20194;-78
2022/07/27 09:45:42;;;;;;;1.08;0.77;;;19.70;90.80;;;;;;5074850;28;20568;-76
2022/07/27 09:48:11;;;;;;;3.78;1.10;;;19.60;91.30;;;;;;5089401;28;20216;-78
2022/07/27 09:50:40;;;;;;;3.30;1.08;;;19.60;92.00;;;;;;5082375;28;20220;-81
2022/07/27 09:53:19;;;;;;;2.65;0.70;;;19.50;90.50;;;;;;5096655;28;20557;-80
2022/07/27 09:55:58;;;;;;;3.78;0.90;;;19.40;89.70;;;;;;5098806;28;20193;-81
2022/07/27 09:58:39;;;;;;;3.97;0.77;;;19.40;88.80;;;;;;5094452;28;20208;-81
2022/07/27 10:01:07;;;;;;;0.63;0.63;;;19.40;90.30;;;;;;5091373;28;20208;-81
2022/07/27 10:03:35;;;;;;;3.35;0.70;;;19.20;88.40;;;;;;5089858;28;20212;-81
2022/07/27 10:06:03;;;;;;;3.30;0.95;;;19.30;88.80;;;;;;5091989;28;20671;-81
2022/07/27 10:08:31;;;;;;;2.70;0.93;;;19.60;88.90;;;;;;5081478;28;20659;-81
2022/07/27 10:11:00;;;;;;;1.42;0.70;;;19.70;88.80;;;;;;5098019;28;20571;-81
2022/07/27 10:13:28;;;;;;;1.77;0.80;;;19.80;89.00;;;;;;5095932;28;20554;-81
2022/07/27 10:15:56;;;;;;;3.13;1.02;;;20.00;88.80;;;;;;5091931;28;20208;-81
2022/07/27 10:18:36;;;;;;;2.70;0.90;;;20.10;87.50;;;;;;5088292;28;20208;-81
2022/07/27 10:21:07;;;;;;;1.08;0.55;;;20.20;84.80;;;;;;5078341;28;20212;-81
2022/07/27 10:23:37;;;;;;;1.85;0.70;;;20.20;81.40;;;;;;5092153;28;20549;-81
2022/07/27 10:26:20;;;;;;;1.55;0.70;;;20.10;81.60;;;;;;5095261;28;20197;-81
2022/07/27 10:28:55;;;;;;;1.50;0.70;;;20.10;85.40;;;;;;5089134;28;20214;-81
2022/07/27 10:31:24;;;;;;;2.25;0.80;;;20.10;85.90;;;;;;5088740;28;20227;-81
2022/07/27 10:33:53;;;;;;;4.63;1.10;;;20.20;83.90;;;;;;5090419;28;20208;-82
2022/07/27 10:36:42;;;;;;;3.95;1.27;;;20.20;84.90;;;;;;5091517;28;20220;-82
2022/07/27 10:39:10;;;;;;;2.65;1.00;;;20.00;85.50;;;;;;5084820;28;20185;-81
2022/07/27 10:41:42;;;;;;;4.32;0.80;;;20.10;85.00;;;;;;5090296;28;20208;-82
2022/07/27 10:44:29;;;;;;;3.47;1.05;;;20.20;82.70;;;;;;5095290;28;20212;-81
2022/07/27 10:46:58;;;;;;;2.10;1.15;;;20.40;81.50;;;;;;5092065;28;20193;-81
2022/07/27 10:49:30;;;;;;;2.70;0.70;;;20.10;80.60;;;;;;5092137;28;20243;-81
2022/07/27 10:51:59;;;;;;;1.77;0.82;;;20.10;80.80;;;;;;5091812;28;20198;-81
2022/07/27 10:54:31;;;;;;;2.17;1.05;;;20.10;79.30;;;;;;5091807;28;20216;-81
2022/07/27 10:57:01;;;;;;;4.90;0.90;;;20.20;79.50;;;;;;5090013;28;20193;-81
2022/07/27 10:59:48;;;;;;;2.78;0.70;;;20.30;78.20;;;;;;5091293;28;20578;-79
2022/07/27 11:02:17;;;;;;;1.58;0.88;;;20.50;76.90;;;;;;5092604;28;20197;-81
2022/07/27 11:04:47;;;;;;;1.42;0.90;;;20.60;76.70;;;;;;5094989;28;20206;-79
2022/07/27 11:07:17;;;;;;;1.63;0.80;;;20.70;74.10;;;;;;5086900;28;20204;-81
2022/07/27 11:09:46;;;;;;;1.83;1.20;;;20.70;74.70;;;;;;5085729;28;20225;-81
2022/07/27 11:12:17;;;;;;;2.47;0.60;;;20.90;75.30;;;;;;5100908;28;20197;-81
2022/07/27 11:14:47;;;;;;;3.72;1.05;;;20.70;76.10;;;;;;5092853;28;20208;-79
2022/07/27 11:17:17;;;;;;;2.10;0.60;;;20.50;75.80;;;;;;5088342;28;20208;-81
2022/07/27 11:19:45;;;;;;;3.63;0.98;;;20.70;77.50;;;;;;5098403;28;20229;-81
2022/07/27 11:22:12;;;;;;;3.72;1.08;;;20.50;75.70;;;;;;5090663;28;20208;-80
2022/07/27 11:24:53;;;;;;;3.20;1.00;;;20.20;76.80;;;;;;5085647;28;20662;-80
2022/07/27 11:27:22;;;;;;;4.07;1.15;;;20.10;80.30;;;;;;5101332;28;20209;-80
2022/07/27 11:29:55;;;;;;;3.20;1.10;;;20.00;82.30;;;;;;5085164;28;20235;-80
2022/07/27 11:32:36;;;;;;;4.88;1.27;;;20.10;83.50;;;;;;5086821;28;20227;-77
2022/07/27 11:35:13;;;;;;;2.05;0.90;;;19.90;82.60;;;;;;5082950;28;20664;-77
2022/07/27 11:37:41;;;;;;;2.03;1.23;;;20.00;84.20;;;;;;5088723;28;20205;-78
2022/07/27 11:40:09;;;;;;;3.65;1.10;;;20.30;81.90;;;;;;5085447;28;20232;-78
2022/07/27 11:42:40;;;;;;;2.85;1.20;;;20.40;82.00;;;;;;5084033;28;20279;-78
2022/07/27 11:45:08;;;;;;;3.10;1.20;;;20.50;81.60;;;;;;5087141;28;20193;-78
2022/07/27 11:47:35;;;;;;;7.07;1.55;;;20.40;80.60;;;;;;5080990;28;20202;-78
2022/07/27 11:50:07;;;;;;;3.78;1.13;;;20.30;80.30;;;;;;5088052;28;20686;-78
2022/07/27 11:52:34;;;;;;;4.30;1.20;;;20.40;79.40;;;;;;5085384;28;20197;-76
2022/07/27 11:55:02;;;;;;;2.13;0.80;;;20.70;81.00;;;;;;5096629;28;20666;-76
2022/07/27 11:57:32;;;;;;;2.55;1.00;;;20.70;79.90;;;;;;5096707;28;20193;-77
2022/07/27 12:00:01;;;;;;;3.25;1.30;;;20.80;81.80;;;;;;5077591;28;20221;-78
2022/07/27 12:02:28;;;;;;;2.33;1.00;;;20.70;80.00;;;;;;5090838;28;20208;-77
2022/07/27 12:04:56;;;;;;;2.90;1.00;;;20.70;75.70;;;;;;5083891;28;20198;-78
2022/07/27 12:07:30;;;;;;;2.55;0.90;;;20.90;73.40;;;;;;5086781;28;20197;-77
2022/07/27 12:10:03;;;;;;;3.63;1.05;;;21.50;73.00;;;;;;5089084;28;20228;-78
2022/07/27 12:12:32;;;;;;;2.95;0.70;;;21.80;71.90;;;;;;5088271;28;20200;-77
2022/07/27 12:15:02;;;;;;;2.00;1.05;;;22.10;69.00;;;;;;5091106;28;20197;-78
2022/07/27 12:17:32;;;;;;;0.70;0.40;;;22.10;67.30;;;;;;5099565;28;20204;-77
2022/07/27 12:20:03;;;;;;;2.67;0.73;;;21.90;68.00;;;;;;5088125;28;20213;-78
2022/07/27 12:22:40;;;;;;;3.08;0.82;;;22.70;67.40;;;;;;5090299;28;20205;-77
2022/07/27 12:25:10;;;;;;;4.25;1.20;;;22.70;65.20;;;;;;5089239;28;20559;-78
2022/07/27 12:27:38;;;;;;;0.90;0.80;;;22.70;64.10;;;;;;5077853;28;20193;-78
2022/07/27 12:30:14;;;;;;;2.38;0.68;;;22.70;65.70;;;;;;5080266;28;20222;-77
2022/07/27 12:32:44;;;;;;;2.72;1.00;;;22.40;68.20;;;;;;5107548;28;20196;-78
2022/07/27 12:35:20;;;;;;;2.70;0.90;;;22.00;68.30;;;;;;5087650;28;20209;-77
2022/07/27 12:37:55;;;;;;;2.58;1.02;;;21.70;70.10;;;;;;5086802;28;20200;-78
2022/07/27 12:40:22;;;;;;;5.18;1.42;;;21.50;71.60;;;;;;5078540;28;20235;-77
2022/07/27 12:43:14;;;;;;;3.28;1.40;;;21.40;72.00;;;;;;5087902;28;20193;-78
2022/07/27 12:45:43;;;;;;;1.58;1.23;;;20.80;70.60;;;;;;5088841;28;20201;-78
2022/07/27 12:48:12;;;;;;;2.08;1.27;;;20.80;72.30;;;;;;5081792;28;20199;-77
2022/07/27 12:50:41;;;;;;;3.42;1.02;;;20.70;71.80;;;;;;5085623;28;20244;-77
2022/07/27 12:53:09;;;;;;;2.15;1.48;;;20.80;70.10;;;;;;5080699;28;20209;-77
2022/07/27 12:55:37;;;;;;;2.95;1.13;;;20.90;71.80;;;;;;5082166;28;20205;-77
2022/07/27 12:58:08;;;;;;;1.75;1.42;;;21.00;72.90;;;;;;5086100;28;20201;-77
2022/07/27 13:00:37;;;;;;;3.47;1.35;;;21.00;72.70;;;;;;5083384;28;20220;-77
2022/07/27 13:03:06;;;;;;;3.97;1.10;;;21.00;71.60;;;;;;5091272;28;20211;-77
2022/07/27 13:05:35;;;;;;;2.60;0.93;;;21.10;70.40;;;;;;5088925;28;20201;-77
2022/07/27 13:08:04;;;;;;;2.38;0.90;;;21.00;70.80;;;;;;5080542;28;20204;-77
2022/07/27 13:10:32;;;;;;;1.48;0.73;;;21.10;68.60;;;;;;5082488;28;20221;-77